Time;durP1;ratioP1;P1;durP2;ratioP2;P2;SDS_P1;SDS_P2;PMS_P1;PMS_P2;Temp;Humidity;BMP_temperature;BMP_pressure;BME280_temperature;BME280_humidity;BME280_pressure;Samples;Min_cycle;Max_cycle;Signal;HPM_P1;HPM_P2
2022/04/27 00:01:54;;;;;;;3.92;1.80;;;22.20;72.70;;;;;;5097462;23;20570;-62
2022/04/27 00:03:56;;;;;;;4.22;2.13;;;22.20;72.90;;;;;;5098975;23;20432;-65
2022/04/27 00:05:58;;;;;;;3.03;2.15;;;22.20;72.80;;;;;;5089210;23;20025;-66
2022/04/27 00:08:03;;;;;;;5.50;2.15;;;22.20;72.70;;;;;;5113979;23;20106;-67
2022/04/27 00:10:06;;;;;;;3.08;1.83;;;22.20;72.70;;;;;;5064014;23;20024;-65
2022/04/27 00:12:09;;;;;;;3.40;2.10;;;22.20;72.70;;;;;;5097883;23;20052;-65
2022/04/27 00:14:12;;;;;;;3.10;1.98;;;22.20;72.70;;;;;;5090902;23;20032;-66
2022/04/27 00:16:14;;;;;;;2.90;1.77;;;22.20;72.70;;;;;;5093340;23;20060;-62
2022/04/27 00:18:16;;;;;;;5.50;2.05;;;22.20;72.70;;;;;;5099510;23;20024;-63
2022/04/27 00:20:18;;;;;;;3.58;2.00;;;22.20;72.70;;;;;;5099220;23;20028;-65
2022/04/27 00:22:20;;;;;;;2.53;1.88;;;22.10;72.70;;;;;;5101303;23;20032;-63
2022/04/27 00:24:23;;;;;;;4.70;2.22;;;22.10;72.70;;;;;;5103628;23;20032;-64
2022/04/27 00:26:25;;;;;;;4.45;2.20;;;22.10;72.60;;;;;;5102896;23;20029;-65
2022/04/27 00:28:28;;;;;;;5.00;2.30;;;22.10;72.70;;;;;;5101974;23;20028;-63
2022/04/27 00:30:30;;;;;;;3.03;1.85;;;22.10;72.60;;;;;;5102663;23;20120;-65
2022/04/27 00:32:33;;;;;;;5.72;2.42;;;22.10;72.70;;;;;;5107827;23;20489;-65
2022/04/27 00:34:35;;;;;;;3.45;1.80;;;22.10;72.70;;;;;;5100153;23;20083;-66
2022/04/27 00:36:37;;;;;;;2.33;1.88;;;22.10;72.70;;;;;;5138009;23;20044;-64
2022/04/27 00:38:39;;;;;;;3.22;1.80;;;22.10;72.60;;;;;;5114671;23;20383;-64
2022/04/27 00:40:47;;;;;;;4.88;2.65;;;22.10;72.70;;;;;;5114414;23;20027;-63
2022/04/27 00:42:49;;;;;;;3.58;2.05;;;22.10;72.80;;;;;;5103262;23;20025;-63
2022/04/27 00:44:51;;;;;;;4.00;1.95;;;22.10;72.80;;;;;;5108965;23;20024;-64
2022/04/27 00:46:54;;;;;;;4.10;1.80;;;22.00;72.70;;;;;;5111208;23;20036;-67
2022/04/27 00:48:56;;;;;;;3.17;2.00;;;22.00;72.80;;;;;;5107270;23;20911;-64
2022/04/27 00:51:02;;;;;;;3.47;2.30;;;22.00;72.80;;;;;;5103683;23;20063;-64
2022/04/27 00:53:04;;;;;;;3.72;2.10;;;22.00;72.80;;;;;;5102700;23;20020;-63
2022/04/27 00:55:07;;;;;;;3.38;2.00;;;22.00;72.90;;;;;;5110340;23;20212;-63
2022/04/27 00:57:10;;;;;;;3.22;2.10;;;22.00;72.90;;;;;;5103818;23;20025;-64
2022/04/27 00:59:13;;;;;;;3.90;2.20;;;22.00;72.90;;;;;;5102711;23;20036;-65
2022/04/27 01:01:17;;;;;;;4.57;2.22;;;22.00;73.00;;;;;;5105764;23;20025;-66
2022/04/27 01:03:19;;;;;;;3.10;2.25;;;22.00;73.20;;;;;;5111761;23;20516;-63
2022/04/27 01:05:21;;;;;;;5.03;2.08;;;22.00;73.30;;;;;;5110175;23;20467;-63
2022/04/27 01:07:25;;;;;;;4.05;2.10;;;22.00;73.30;;;;;;5112582;23;20481;-62
2022/04/27 01:09:30;;;;;;;3.83;2.20;;;22.00;73.30;;;;;;5116425;23;20047;-62
2022/04/27 01:11:33;;;;;;;5.93;2.33;;;22.00;73.20;;;;;;5100184;23;20076;-68
2022/04/27 01:13:34;;;;;;;;;;;22.00;73.20;;;;;;5092320;23;20025;-67
2022/04/27 01:15:37;;;;;;;3.72;2.03;;;22.00;73.20;;;;;;5090087;23;19919;-68
2022/04/27 01:17:39;;;;;;;4.55;1.83;;;22.00;73.20;;;;;;5095223;23;20040;-66
2022/04/27 01:19:41;;;;;;;2.83;2.00;;;22.00;73.20;;;;;;5090112;23;20896;-68
2022/04/27 01:21:44;;;;;;;3.88;2.00;;;22.00;73.20;;;;;;5087130;23;20879;-67
2022/04/27 01:23:46;;;;;;;4.93;1.83;;;22.00;73.20;;;;;;5096725;23;20477;-66
2022/04/27 01:25:57;;;;;;;4.97;2.17;;;22.00;73.20;;;;;;5090720;23;20462;-65
2022/04/27 01:28:00;;;;;;;3.47;2.05;;;22.00;73.40;;;;;;5089506;23;20032;-65
2022/04/27 01:30:02;;;;;;;5.80;2.58;;;22.00;73.20;;;;;;5088718;23;20867;-65
2022/04/27 01:32:05;;;;;;;3.38;2.00;;;22.00;73.20;;;;;;5089944;23;20032;-64
2022/04/27 01:34:07;;;;;;;4.30;2.20;;;22.00;73.20;;;;;;5093293;23;20094;-65
2022/04/27 01:36:13;;;;;;;3.45;2.30;;;22.00;73.20;;;;;;5086408;23;20134;-65
2022/04/27 01:38:16;;;;;;;4.43;2.10;;;22.00;73.20;;;;;;5086419;23;20036;-61
2022/04/27 01:40:18;;;;;;;;;;;22.00;73.20;;;;;;5088745;23;20131;-61
2022/04/27 01:42:20;;;;;;;4.40;2.17;;;22.00;73.30;;;;;;5093025;23;20140;-62
2022/04/27 01:44:22;;;;;;;2.80;1.90;;;22.00;73.30;;;;;;5085477;23;20040;-61
2022/04/27 01:46:25;;;;;;;3.55;2.08;;;22.00;73.30;;;;;;5085197;23;20060;-64
2022/04/27 01:48:27;;;;;;;;;;;22.00;73.40;;;;;;5092967;23;20025;-64
2022/04/27 01:50:29;;;;;;;3.28;1.98;;;22.00;73.40;;;;;;5083399;23;19916;-64
2022/04/27 01:54:51;;;;;;;3.33;2.17;;;22.00;73.40;;;;;;5087337;23;20094;-64
2022/04/27 01:56:54;;;;;;;3.45;2.20;;;22.00;73.50;;;;;;5086464;23;20035;-63
2022/04/27 01:58:56;;;;;;;2.75;1.90;;;22.00;73.60;;;;;;5092349;23;20028;-62
2022/04/27 02:00:58;;;;;;;4.70;2.00;;;22.00;73.70;;;;;;5089099;23;20060;-63
2022/04/27 02:03:00;;;;;;;5.53;2.30;;;22.00;73.70;;;;;;5056722;23;20771;-63
2022/04/27 02:05:04;;;;;;;3.90;2.25;;;22.00;73.80;;;;;;5087298;23;20028;-62
2022/04/27 02:07:06;;;;;;;4.45;1.98;;;22.00;74.00;;;;;;5090637;23;20032;-63
2022/04/27 02:09:08;;;;;;;3.88;2.05;;;22.00;73.90;;;;;;5085915;23;20082;-62
2022/04/27 02:11:11;;;;;;;5.32;2.13;;;22.10;73.90;;;;;;5082795;23;20028;-63
2022/04/27 02:13:13;;;;;;;3.30;2.05;;;22.10;73.90;;;;;;5088488;23;20502;-62
2022/04/27 02:15:15;;;;;;;4.53;2.30;;;22.00;73.50;;;;;;5088545;23;20943;-61
2022/04/27 02:17:17;;;;;;;3.90;2.28;;;22.00;73.90;;;;;;5081733;23;20036;-61
2022/04/27 02:19:21;;;;;;;3.88;2.30;;;22.00;74.00;;;;;;5091285;23;20475;-63
2022/04/27 02:21:25;;;;;;;5.18;1.90;;;22.00;74.00;;;;;;5115835;23;20154;-63
2022/04/27 02:23:27;;;;;;;3.80;2.22;;;22.10;74.00;;;;;;5084881;23;20063;-64
2022/04/27 02:25:29;;;;;;;5.60;2.30;;;22.10;74.00;;;;;;5084982;23;20121;-62
2022/04/27 02:27:32;;;;;;;4.45;2.20;;;22.00;74.00;;;;;;5092044;23;20035;-62
2022/04/27 02:29:34;;;;;;;5.75;2.55;;;22.10;74.00;;;;;;5083312;23;20024;-63
2022/04/27 02:31:37;;;;;;;4.70;2.13;;;22.00;74.00;;;;;;5084860;23;20042;-63
2022/04/27 02:33:39;;;;;;;4.28;2.33;;;22.10;74.10;;;;;;5089299;23;20024;-68
2022/04/27 02:35:41;;;;;;;11.90;2.92;;;22.00;74.20;;;;;;5092885;23;20667;-66
2022/04/27 02:37:45;;;;;;;4.88;2.22;;;22.10;74.50;;;;;;5088719;23;20098;-66
2022/04/27 02:39:47;;;;;;;6.57;2.67;;;22.10;73.50;;;;;;5088037;23;20032;-66
2022/04/27 02:41:49;;;;;;;3.30;2.30;;;22.10;72.60;;;;;;5093371;23;20029;-67
2022/04/27 02:43:51;;;;;;;3.63;2.20;;;22.10;72.50;;;;;;5085888;23;20994;-68
2022/04/27 02:45:54;;;;;;;5.18;2.40;;;22.00;72.60;;;;;;5087959;23;20123;-67
2022/04/27 02:47:56;;;;;;;3.65;2.47;;;22.00;72.70;;;;;;5093656;23;20028;-69
2022/04/27 02:52:18;;;;;;;5.45;2.50;;;22.00;72.80;;;;;;5094413;23;20137;-66
2022/04/27 02:54:22;;;;;;;4.30;2.50;;;22.00;72.80;;;;;;5088558;23;20574;-67
2022/04/27 02:56:24;;;;;;;2.90;2.17;;;22.00;72.80;;;;;;5086678;23;20106;-66
2022/04/27 02:58:27;;;;;;;4.68;2.42;;;21.90;72.80;;;;;;5087596;23;20036;-67
2022/04/27 03:00:30;;;;;;;3.65;2.28;;;21.90;72.80;;;;;;5092173;23;20024;-67
2022/04/27 03:02:32;;;;;;;3.58;2.10;;;21.90;72.90;;;;;;5081475;23;20036;-66
2022/04/27 03:04:34;;;;;;;3.75;2.35;;;21.90;73.00;;;;;;5087620;23;20159;-66
2022/04/27 03:06:37;;;;;;;4.80;2.53;;;21.90;73.00;;;;;;5093742;23;20879;-65
2022/04/27 03:08:39;;;;;;;3.90;2.72;;;21.90;73.00;;;;;;5087637;23;20460;-66
2022/04/27 03:10:41;;;;;;;4.38;2.35;;;21.90;73.10;;;;;;5086653;23;20820;-68
2022/04/27 03:12:44;;;;;;;4.70;2.42;;;21.90;73.10;;;;;;5089257;23;20471;-64
2022/04/27 03:14:46;;;;;;;8.68;2.80;;;21.80;73.10;;;;;;5091481;23;20695;-63
2022/04/27 03:16:49;;;;;;;3.80;2.25;;;21.80;73.40;;;;;;5086261;23;20044;-63
2022/04/27 03:18:51;;;;;;;7.07;3.03;;;21.90;73.70;;;;;;5082040;23;20035;-63
2022/04/27 03:20:53;;;;;;;7.53;2.60;;;21.80;73.70;;;;;;5093225;23;20456;-62
2022/04/27 03:22:55;;;;;;;5.88;2.22;;;21.80;73.80;;;;;;5086052;23;20091;-63
2022/04/27 03:24:58;;;;;;;5.57;3.08;;;21.90;73.90;;;;;;5084769;23;20905;-63
2022/04/27 03:27:00;;;;;;;4.57;2.45;;;21.90;73.90;;;;;;5091324;23;20472;-65
2022/04/27 03:29:03;;;;;;;3.92;2.10;;;21.90;74.00;;;;;;5087290;23;20025;-61
2022/04/27 03:31:05;;;;;;;3.30;2.30;;;21.90;73.90;;;;;;5083868;23;20096;-60
2022/04/27 03:33:08;;;;;;;5.13;2.40;;;21.90;74.00;;;;;;5088591;23;20714;-61
2022/04/27 03:35:10;;;;;;;3.07;2.07;;;21.90;74.00;;;;;;5093392;23;20071;-61
2022/04/27 03:37:12;;;;;;;4.93;2.45;;;21.90;74.00;;;;;;5084387;23;20027;-61
2022/04/27 03:39:14;;;;;;;4.13;2.30;;;21.90;74.00;;;;;;5087031;23;20759;-61
2022/04/27 03:41:20;;;;;;;6.25;2.60;;;21.90;74.10;;;;;;5091470;23;20059;-67
2022/04/27 03:43:22;;;;;;;5.25;2.30;;;21.90;74.20;;;;;;5089939;23;20098;-66
2022/04/27 03:45:24;;;;;;;3.30;2.00;;;21.90;74.20;;;;;;5088590;23;20044;-66
2022/04/27 03:47:27;;;;;;;3.55;2.10;;;21.90;74.20;;;;;;5086624;23;20044;-65
2022/04/27 03:49:29;;;;;;;5.55;2.15;;;21.90;74.20;;;;;;5090760;23;20122;-62
2022/04/27 03:51:31;;;;;;;5.00;2.30;;;21.90;74.40;;;;;;5085903;23;20051;-60
2022/04/27 03:53:33;;;;;;;3.55;2.08;;;21.90;74.40;;;;;;5086630;23;20025;-62
2022/04/27 03:55:36;;;;;;;5.55;2.42;;;21.90;74.40;;;;;;5094763;23;20133;-63
2022/04/27 03:57:38;;;;;;;5.35;2.35;;;21.90;74.50;;;;;;5091633;23;21149;-62
2022/04/27 03:59:40;;;;;;;3.78;2.17;;;21.90;74.60;;;;;;5085841;23;20032;-63
2022/04/27 04:01:43;;;;;;;2.97;2.22;;;21.90;74.60;;;;;;5089407;23;20024;-63
2022/04/27 04:03:45;;;;;;;5.75;2.25;;;21.90;74.60;;;;;;5094530;23;20056;-63
2022/04/27 04:05:47;;;;;;;5.97;2.22;;;22.00;74.60;;;;;;5089050;23;20090;-62
2022/04/27 04:07:49;;;;;;;4.72;2.35;;;21.90;74.70;;;;;;5087084;23;20128;-64
2022/04/27 04:09:51;;;;;;;5.55;2.10;;;22.00;74.70;;;;;;5092827;23;20594;-66
2022/04/27 04:11:53;;;;;;;3.17;2.40;;;21.90;74.70;;;;;;5085955;23;20052;-66
2022/04/27 04:13:55;;;;;;;3.92;2.47;;;22.00;74.70;;;;;;5085593;23;20474;-61
2022/04/27 04:15:57;;;;;;;3.20;2.03;;;22.00;74.80;;;;;;5092774;23;20124;-63
2022/04/27 04:18:00;;;;;;;3.90;2.22;;;22.00;74.80;;;;;;5089974;23;20056;-64
2022/04/27 04:20:02;;;;;;;4.55;2.00;;;22.00;74.80;;;;;;5088903;23;20029;-63
2022/04/27 04:22:06;;;;;;;3.35;2.10;;;22.00;74.70;;;;;;5090548;23;20033;-61
2022/04/27 04:24:08;;;;;;;4.10;2.00;;;22.00;74.70;;;;;;5095565;23;20035;-61
2022/04/27 04:28:30;;;;;;;3.33;2.30;;;22.00;74.80;;;;;;5095861;23;20128;-63
2022/04/27 04:30:32;;;;;;;14.25;2.97;;;22.00;74.80;;;;;;5088949;23;20020;-61
2022/04/27 04:32:38;;;;;;;6.00;2.42;;;22.00;75.00;;;;;;5090810;23;20107;-59
2022/04/27 04:34:41;;;;;;;8.02;2.35;;;22.00;75.00;;;;;;5094972;23;20033;-63
2022/04/27 04:36:43;;;;;;;3.92;2.03;;;22.00;75.00;;;;;;5092661;23;20721;-62
2022/04/27 04:38:45;;;;;;;5.22;2.00;;;22.00;74.90;;;;;;5085757;23;20031;-62
2022/04/27 04:40:47;;;;;;;7.75;1.92;;;22.00;74.90;;;;;;5094683;23;20032;-64
2022/04/27 04:42:49;;;;;;;8.02;2.83;;;22.00;75.10;;;;;;5098550;23;20032;-63
2022/04/27 04:44:52;;;;;;;4.30;2.15;;;22.00;75.20;;;;;;5119940;23;20139;-62
2022/04/27 04:46:54;;;;;;;4.07;2.30;;;22.00;75.30;;;;;;5096703;23;20036;-62
2022/04/27 04:48:56;;;;;;;7.40;2.08;;;22.10;75.30;;;;;;5105321;23;20036;-63
2022/04/27 04:50:58;;;;;;;5.15;2.22;;;22.10;75.20;;;;;;5095137;23;20033;-61
2022/04/27 04:53:00;;;;;;;4.32;2.33;;;22.10;75.20;;;;;;5095495;23;20514;-60
2022/04/27 04:55:02;;;;;;;4.60;2.20;;;22.10;75.20;;;;;;5102449;23;20025;-61
2022/04/27 04:57:05;;;;;;;3.00;2.13;;;22.10;75.10;;;;;;5095451;23;20603;-60
2022/04/27 04:59:07;;;;;;;3.78;2.25;;;22.10;75.10;;;;;;5102445;23;20059;-61
2022/04/27 05:01:09;;;;;;;4.75;2.35;;;22.10;75.00;;;;;;5094170;23;20140;-61
2022/04/27 05:03:11;;;;;;;3.85;2.03;;;22.10;75.00;;;;;;5100376;23;20835;-60
2022/04/27 05:05:14;;;;;;;2.83;2.33;;;22.10;75.00;;;;;;5096266;23;20419;-61
2022/04/27 05:07:18;;;;;;;4.63;2.23;;;22.10;75.00;;;;;;5097164;23;20579;-62
2022/04/27 05:09:20;;;;;;;4.18;2.25;;;22.10;75.00;;;;;;5105904;23;20024;-65
2022/04/27 05:11:22;;;;;;;5.80;2.50;;;22.10;75.10;;;;;;5108923;23;20020;-60
2022/04/27 05:13:38;;;;;;;5.10;2.27;;;22.10;75.30;;;;;;5102468;23;20016;-60
2022/04/27 05:15:40;;;;;;;3.35;2.22;;;22.10;75.30;;;;;;5097823;23;20040;-60
2022/04/27 05:17:42;;;;;;;4.38;2.08;;;22.10;75.40;;;;;;5108995;23;20020;-67
2022/04/27 05:19:45;;;;;;;5.57;2.08;;;22.10;75.40;;;;;;5092333;23;20850;-66
2022/04/27 05:21:47;;;;;;;5.50;2.53;;;22.10;75.50;;;;;;5084134;23;20067;-64
2022/04/27 05:23:49;;;;;;;4.40;2.22;;;22.10;75.70;;;;;;5080963;23;20521;-66
2022/04/27 05:25:51;;;;;;;5.67;2.30;;;22.10;75.70;;;;;;5078393;23;20028;-66
2022/04/27 05:27:54;;;;;;;5.25;2.30;;;22.20;75.60;;;;;;5084965;23;20893;-65
2022/04/27 05:32:16;;;;;;;4.78;2.58;;;22.20;75.50;;;;;;5081387;23;20028;-61
2022/04/27 05:34:18;;;;;;;5.30;2.10;;;22.20;75.60;;;;;;5081096;23;20063;-61
2022/04/27 05:36:20;;;;;;;5.15;2.38;;;22.20;75.50;;;;;;5087349;23;20059;-61
2022/04/27 05:38:23;;;;;;;7.60;2.13;;;22.20;75.50;;;;;;5086614;23;20025;-62
2022/04/27 05:40:25;;;;;;;4.07;2.00;;;22.20;75.50;;;;;;5083327;23;20079;-63
2022/04/27 05:42:27;;;;;;;4.85;2.25;;;22.20;75.50;;;;;;5082420;23;20039;-63
2022/04/27 05:44:29;;;;;;;3.15;2.00;;;22.20;75.50;;;;;;5090400;23;20032;-62
2022/04/27 05:46:32;;;;;;;4.57;2.00;;;22.20;75.50;;;;;;5086856;23;20033;-62
2022/04/27 05:48:34;;;;;;;10.43;2.55;;;22.20;75.50;;;;;;5082389;23;20263;-62
2022/04/27 05:50:36;;;;;;;5.20;2.20;;;22.20;75.50;;;;;;5088804;23;20036;-61
2022/04/27 05:52:52;;;;;;;3.17;2.10;;;22.20;75.50;;;;;;5092660;23;20168;-61
2022/04/27 05:54:55;;;;;;;4.00;1.95;;;22.20;75.50;;;;;;5093311;23;20028;-61
2022/04/27 05:56:57;;;;;;;4.78;2.10;;;22.10;75.50;;;;;;5087180;23;20669;-62
2022/04/27 05:59:00;;;;;;;4.20;2.47;;;22.20;75.60;;;;;;5086335;23;20032;-62
2022/04/27 06:01:02;;;;;;;3.95;2.20;;;22.20;75.70;;;;;;5088372;23;20153;-61
2022/04/27 06:03:04;;;;;;;2.70;2.00;;;22.20;75.70;;;;;;5087271;23;21013;-61
2022/04/27 06:05:10;;;;;;;8.55;2.67;;;22.20;75.60;;;;;;5085694;23;20472;-72
2022/04/27 06:07:12;;;;;;;3.50;2.00;;;22.20;75.70;;;;;;5054690;23;20031;-62
2022/04/27 06:09:14;;;;;;;4.95;2.55;;;22.20;75.70;;;;;;5090902;23;20559;-62
2022/04/27 06:11:17;;;;;;;3.15;2.00;;;22.20;75.90;;;;;;5109607;23;20962;-62
2022/04/27 06:13:19;;;;;;;4.33;2.40;;;22.20;75.80;;;;;;5082219;23;20028;-60
2022/04/27 06:15:21;;;;;;;5.60;2.25;;;22.20;75.70;;;;;;5087057;23;20664;-61
2022/04/27 06:17:24;;;;;;;4.25;2.33;;;22.20;75.80;;;;;;5090824;23;20025;-62
2022/04/27 06:19:26;;;;;;;5.45;2.25;;;22.20;75.80;;;;;;5084374;23;20214;-63
2022/04/27 06:21:31;;;;;;;3.15;2.05;;;22.20;75.80;;;;;;5084976;23;20035;-62
2022/04/27 06:23:33;;;;;;;5.07;2.17;;;22.30;75.90;;;;;;5090156;23;20230;-60
2022/04/27 06:25:39;;;;;;;6.85;2.33;;;22.30;75.90;;;;;;5087951;23;20024;-60
2022/04/27 06:27:41;;;;;;;3.60;2.15;;;22.20;75.80;;;;;;5083849;23;20203;-60
2022/04/27 06:29:43;;;;;;;2.60;1.92;;;22.20;75.80;;;;;;5081249;23;20021;-61
2022/04/27 06:31:46;;;;;;;3.42;2.10;;;22.30;75.90;;;;;;5088458;23;20039;-60
2022/04/27 06:33:48;;;;;;;7.23;2.50;;;22.20;75.80;;;;;;5087692;23;20329;-62
2022/04/27 06:35:50;;;;;;;3.90;2.30;;;22.20;75.90;;;;;;5090293;23;20075;-61
2022/04/27 06:37:52;;;;;;;2.80;2.03;;;22.20;75.90;;;;;;5093019;23;20025;-61
2022/04/27 06:39:55;;;;;;;4.10;2.20;;;22.20;75.90;;;;;;5087248;23;20029;-62
2022/04/27 06:41:57;;;;;;;4.40;2.63;;;22.30;76.00;;;;;;5087530;23;20201;-62
2022/04/27 06:43:59;;;;;;;2.80;2.10;;;22.20;76.10;;;;;;5092384;23;20115;-62
2022/04/27 06:46:01;;;;;;;5.07;2.45;;;22.20;76.10;;;;;;5116875;23;20095;-62
2022/04/27 06:48:04;;;;;;;2.80;1.88;;;22.30;76.20;;;;;;5089693;23;20033;-62
2022/04/27 06:50:07;;;;;;;3.45;2.13;;;22.30;76.10;;;;;;5087964;23;20032;-62
2022/04/27 06:52:09;;;;;;;4.20;2.05;;;22.30;76.20;;;;;;5095595;23;20080;-60
2022/04/27 06:54:11;;;;;;;3.20;1.80;;;22.30;76.10;;;;;;5091879;23;20978;-61
2022/04/27 06:56:16;;;;;;;3.17;2.05;;;22.30;76.10;;;;;;5088559;23;20113;-61
2022/04/27 06:58:18;;;;;;;5.38;2.38;;;22.30;76.20;;;;;;5092229;23;20864;-63
2022/04/27 07:00:21;;;;;;;4.00;2.40;;;22.30;76.20;;;;;;5098093;23;20107;-65
2022/04/27 07:02:23;;;;;;;4.35;2.17;;;22.30;76.20;;;;;;5087106;23;20067;-62
2022/04/27 07:04:26;;;;;;;2.95;2.20;;;22.30;76.20;;;;;;5091334;23;20544;-61
2022/04/27 07:06:29;;;;;;;3.78;1.92;;;22.30;76.20;;;;;;5094711;23;20034;-60
2022/04/27 07:08:31;;;;;;;3.80;2.50;;;22.30;76.30;;;;;;5093098;23;20787;-62
2022/04/27 07:10:36;;;;;;;4.82;2.05;;;22.30;76.30;;;;;;5090081;23;20036;-64
2022/04/27 07:12:39;;;;;;;3.65;2.10;;;22.30;76.20;;;;;;5089940;23;20091;-62
2022/04/27 07:14:41;;;;;;;3.22;2.00;;;22.30;76.30;;;;;;5095766;23;20028;-63
2022/04/27 07:16:43;;;;;;;4.10;2.30;;;22.30;76.30;;;;;;5089584;23;20867;-63
2022/04/27 07:18:46;;;;;;;4.10;2.10;;;22.30;76.30;;;;;;5088198;23;20154;-61
2022/04/27 07:20:48;;;;;;;3.50;2.27;;;22.30;76.40;;;;;;5092995;23;20059;-63
2022/04/27 07:22:50;;;;;;;3.42;2.17;;;22.30;76.50;;;;;;5092321;23;20591;-65
2022/04/27 07:24:53;;;;;;;3.70;2.05;;;22.30;76.50;;;;;;5084549;23;20682;-64
2022/04/27 07:26:56;;;;;;;3.42;2.20;;;22.30;76.50;;;;;;5089693;23;20036;-65
2022/04/27 07:28:59;;;;;;;3.53;2.63;;;22.30;76.50;;;;;;5093128;23;20071;-64
2022/04/27 07:31:01;;;;;;;;;;;22.30;76.50;;;;;;5089673;23;20025;-63
2022/04/27 07:33:04;;;;;;;4.22;2.38;;;22.30;76.50;;;;;;5090156;23;19923;-63
2022/04/27 07:35:06;;;;;;;4.75;2.40;;;22.30;76.50;;;;;;5094536;23;20028;-63
2022/04/27 07:37:10;;;;;;;5.18;2.20;;;22.30;76.50;;;;;;5093063;23;21101;-62
2022/04/27 07:39:12;;;;;;;4.15;2.00;;;22.30;76.50;;;;;;5091343;23;20066;-62
2022/04/27 07:41:14;;;;;;;4.35;2.20;;;22.30;76.50;;;;;;5085193;23;20329;-64
2022/04/27 07:43:18;;;;;;;3.75;2.60;;;22.30;76.60;;;;;;5094753;23;20100;-64
2022/04/27 07:45:20;;;;;;;3.55;2.40;;;22.30;76.60;;;;;;5115844;23;20039;-62
2022/04/27 07:47:22;;;;;;;3.67;2.35;;;22.30;76.60;;;;;;5089118;23;20024;-63
2022/04/27 07:49:24;;;;;;;4.43;2.55;;;22.40;76.50;;;;;;5093637;23;20043;-64
2022/04/27 07:51:26;;;;;;;3.75;2.40;;;22.30;76.50;;;;;;5094511;23;20039;-64
2022/04/27 07:53:29;;;;;;;4.05;2.33;;;22.40;76.50;;;;;;5088441;23;20039;-64
2022/04/27 07:55:31;;;;;;;4.00;2.33;;;22.40;76.50;;;;;;5093279;23;20021;-63
2022/04/27 07:57:34;;;;;;;4.25;2.50;;;22.30;76.30;;;;;;5095266;23;20032;-65
2022/04/27 07:59:36;;;;;;;4.93;2.55;;;22.40;76.40;;;;;;5090839;23;20035;-63
2022/04/27 08:01:38;;;;;;;4.20;2.50;;;22.40;76.40;;;;;;5089149;23;20059;-62
2022/04/27 08:03:40;;;;;;;3.88;2.42;;;22.40;76.40;;;;;;5098623;23;20108;-62
2022/04/27 08:05:42;;;;;;;3.13;2.00;;;22.40;76.40;;;;;;5092607;23;20780;-60
2022/04/27 08:07:48;;;;;;;3.88;2.25;;;22.40;76.50;;;;;;5088013;23;20139;-61
2022/04/27 08:09:50;;;;;;;10.07;2.13;;;22.40;76.50;;;;;;5089944;23;20565;-61
2022/04/27 08:11:54;;;;;;;3.55;2.40;;;22.30;76.40;;;;;;5096143;23;20033;-61
2022/04/27 08:13:56;;;;;;;4.20;2.40;;;22.40;76.40;;;;;;5090984;23;20036;-59
2022/04/27 08:15:58;;;;;;;4.32;2.50;;;22.30;76.40;;;;;;5089966;23;20028;-60
2022/04/27 08:18:03;;;;;;;3.65;2.30;;;22.30;76.50;;;;;;5092537;23;20060;-65
2022/04/27 08:22:26;;;;;;;3.80;2.50;;;22.30;76.60;;;;;;5094338;23;20029;-66
2022/04/27 08:24:28;;;;;;;4.25;2.33;;;22.30;76.70;;;;;;5098987;23;20667;-65
2022/04/27 08:26:31;;;;;;;3.20;2.20;;;22.30;76.70;;;;;;5090653;23;20031;-66
2022/04/27 08:28:34;;;;;;;4.93;2.20;;;22.30;76.70;;;;;;5113022;23;20028;-67
2022/04/27 08:30:39;;;;;;;4.82;2.65;;;22.30;76.70;;;;;;5097450;23;20024;-65
2022/04/27 08:32:41;;;;;;;5.43;2.70;;;22.30;76.60;;;;;;5092958;23;20309;-70
2022/04/27 08:34:43;;;;;;;7.05;3.10;;;22.30;76.70;;;;;;5090956;23;20033;-63
2022/04/27 08:36:46;;;;;;;6.85;2.78;;;22.30;76.70;;;;;;5090385;23;20030;-62
2022/04/27 08:38:48;;;;;;;5.43;2.88;;;22.30;76.70;;;;;;5095746;23;20128;-64
2022/04/27 08:40:51;;;;;;;3.78;2.95;;;22.30;76.80;;;;;;5091047;23;20042;-63
2022/04/27 08:42:54;;;;;;;4.25;3.00;;;22.30;76.80;;;;;;5091591;23;20028;-65
2022/04/27 08:44:56;;;;;;;4.00;2.50;;;22.40;76.90;;;;;;5096260;23;20040;-66
2022/04/27 08:46:59;;;;;;;4.67;2.93;;;22.40;76.80;;;;;;5116080;23;20024;-65
2022/04/27 08:49:02;;;;;;;7.25;3.05;;;22.40;76.80;;;;;;5088479;23;20573;-65
2022/04/27 08:51:05;;;;;;;5.50;2.80;;;22.40;76.80;;;;;;5090980;23;20112;-66
2022/04/27 08:53:08;;;;;;;5.50;2.78;;;22.40;76.80;;;;;;5097877;23;20538;-67
2022/04/27 08:55:11;;;;;;;4.82;3.33;;;22.40;76.80;;;;;;5093419;23;20036;-66
2022/04/27 08:57:13;;;;;;;5.75;3.40;;;22.40;76.00;;;;;;5090750;23;20209;-63
2022/04/27 08:59:15;;;;;;;4.38;3.00;;;22.40;75.80;;;;;;5097177;23;20508;-65
2022/04/27 09:01:18;;;;;;;6.43;3.95;;;22.30;75.70;;;;;;5092320;23;20327;-65
2022/04/27 09:03:34;;;;;;;4.85;3.28;;;22.30;76.30;;;;;;5087292;23;20642;-67
2022/04/27 09:05:37;;;;;;;7.75;3.50;;;22.30;76.60;;;;;;5095609;23;20028;-63
2022/04/27 09:07:56;;;;;;;4.95;3.53;;;22.30;76.60;;;;;;5096441;23;20108;-65
2022/04/27 09:09:59;;;;;;;4.85;3.40;;;22.30;76.70;;;;;;5095280;23;20052;-65
2022/04/27 09:12:07;;;;;;;6.07;3.47;;;22.40;76.80;;;;;;5095404;23;20124;-63
2022/04/27 09:14:10;;;;;;;6.15;3.05;;;22.40;76.80;;;;;;5103511;23;20024;-61
2022/04/27 09:16:13;;;;;;;11.82;3.63;;;22.40;76.80;;;;;;5104043;23;20071;-63
2022/04/27 09:20:49;;;;;;;6.43;3.35;;;22.40;76.70;;;;;;5113689;23;20579;-66
2022/04/27 09:22:51;;;;;;;4.95;3.53;;;22.40;76.80;;;;;;5114299;23;20103;-66
2022/04/27 09:24:55;;;;;;;4.18;3.15;;;22.40;76.80;;;;;;5114250;23;20024;-67
2022/04/27 09:27:16;;;;;;;4.88;3.20;;;22.40;76.80;;;;;;5105223;23;21090;-65
2022/04/27 09:29:25;;;;;;;4.03;3.20;;;22.40;76.80;;;;;;5102641;23;20024;-68
2022/04/27 09:31:30;;;;;;;5.07;3.40;;;22.40;76.70;;;;;;5100954;23;20028;-62
2022/04/27 09:33:36;;;;;;;8.02;3.65;;;22.50;76.70;;;;;;5104028;23;20032;-61
2022/04/27 09:35:44;;;;;;;4.38;3.20;;;22.50;76.70;;;;;;5103200;23;20035;-60
2022/04/27 09:37:47;;;;;;;5.80;3.53;;;22.50;76.70;;;;;;5098347;23;20843;-66
2022/04/27 09:40:11;;;;;;;4.97;3.73;;;22.50;76.70;;;;;;5095532;23;20765;-66
2022/04/27 09:42:14;;;;;;;10.13;3.13;;;22.50;76.80;;;;;;5094228;23;21002;-63
2022/04/27 09:44:31;;;;;;;4.55;3.22;;;22.50;76.80;;;;;;5099874;23;20031;-63
2022/04/27 09:46:40;;;;;;;7.50;3.58;;;22.50;76.70;;;;;;5098046;23;20032;-62
2022/04/27 09:48:46;;;;;;;5.90;3.40;;;22.50;76.70;;;;;;5098747;23;20480;-63
2022/04/27 09:50:56;;;;;;;5.93;3.70;;;22.50;76.70;;;;;;5097810;23;20434;-65
2022/04/27 09:53:00;;;;;;;5.38;3.60;;;22.50;76.70;;;;;;5093305;23;20025;-64
2022/04/27 09:55:03;;;;;;;4.75;3.60;;;22.50;76.70;;;;;;5091644;23;20028;-66
2022/04/27 09:57:05;;;;;;;;;;;22.50;76.70;;;;;;5092869;23;20064;-63
2022/04/27 09:59:08;;;;;;;6.30;3.70;;;22.50;76.60;;;;;;5069158;23;20318;-63
2022/04/27 10:01:14;;;;;;;5.53;3.75;;;22.50;76.70;;;;;;5092032;23;20034;-63
2022/04/27 10:03:21;;;;;;;7.93;3.97;;;22.50;76.70;;;;;;5088644;23;20029;-63
2022/04/27 10:05:23;;;;;;;5.20;3.42;;;22.50;76.70;;;;;;5087933;23;20432;-63
2022/04/27 10:07:26;;;;;;;4.50;3.45;;;22.50;76.60;;;;;;5095037;23;20029;-63
2022/04/27 10:09:28;;;;;;;;;;;22.50;76.60;;;;;;5090988;23;20923;-63
2022/04/27 10:11:32;;;;;;;4.78;3.50;;;22.50;76.60;;;;;;5088746;23;19954;-63
2022/04/27 10:13:34;;;;;;;;;;;22.50;76.60;;;;;;5093623;23;20114;-64
2022/04/27 10:15:36;;;;;;;6.80;3.40;;;22.50;76.50;;;;;;5089917;23;19948;-62
2022/04/27 10:17:40;;;;;;;6.07;3.55;;;22.50;76.50;;;;;;5090233;23;20129;-62
2022/04/27 10:19:50;;;;;;;4.93;3.38;;;22.50;76.50;;;;;;5089490;23;20087;-61
2022/04/27 10:21:59;;;;;;;5.35;3.70;;;22.50;76.60;;;;;;5090586;23;20652;-61
2022/04/27 10:24:02;;;;;;;5.28;3.58;;;22.50;76.60;;;;;;5092334;23;20445;-61
2022/04/27 10:26:12;;;;;;;6.75;3.97;;;22.50;76.60;;;;;;5097008;23;20771;-61
2022/04/27 10:28:22;;;;;;;4.93;3.67;;;22.50;76.60;;;;;;5116294;23;20121;-61
2022/04/27 10:30:45;;;;;;;5.40;3.50;;;22.40;76.50;;;;;;5093369;23;20035;-61
2022/04/27 10:32:51;;;;;;;6.13;4.10;;;22.40;76.60;;;;;;5094621;23;20086;-60
2022/04/27 10:35:12;;;;;;;5.05;3.83;;;22.50;76.60;;;;;;5092476;23;20124;-60
2022/04/27 10:37:47;;;;;;;5.45;3.80;;;22.40;76.60;;;;;;5086283;23;20060;-61
2022/04/27 10:39:49;;;;;;;6.45;4.00;;;22.40;76.70;;;;;;5092987;23;20415;-61
2022/04/27 10:42:07;;;;;;;6.03;3.90;;;22.40;76.80;;;;;;5085905;23;20028;-60
2022/04/27 10:44:09;;;;;;;5.80;3.47;;;22.40;76.80;;;;;;5092042;23;20056;-62
2022/04/27 10:46:40;;;;;;;5.05;3.67;;;22.40;76.80;;;;;;5086144;23;20050;-61
2022/04/27 10:48:48;;;;;;;5.28;3.80;;;22.40;76.90;;;;;;5095475;23;20127;-60
2022/04/27 10:51:07;;;;;;;4.63;3.63;;;22.30;76.90;;;;;;5091169;23;20024;-64
2022/04/27 10:53:20;;;;;;;6.25;3.85;;;22.40;77.00;;;;;;5114572;23;20060;-66
2022/04/27 10:55:37;;;;;;;5.10;3.80;;;22.40;77.20;;;;;;5090379;23;20036;-65
2022/04/27 10:57:41;;;;;;;10.93;3.85;;;22.40;77.10;;;;;;5085717;23;20043;-65
2022/04/27 11:00:02;;;;;;;5.35;3.50;;;22.30;77.00;;;;;;5093381;23;20035;-66